createdAt,value
2019-02-18T00:01:39.717Z,6.33
2019-02-18T00:04:28.397Z,7.22
2019-02-18T00:07:16.946Z,6.30
2019-02-18T00:10:06.247Z,5.05
2019-02-18T00:12:55.709Z,5.00
2019-02-18T00:15:44.274Z,6.65
2019-02-18T00:18:33.162Z,6.28
2019-02-18T00:21:22.424Z,6.72
2019-02-18T00:24:11.710Z,5.77
2019-02-18T00:27:01.237Z,5.58
2019-02-18T00:29:49.795Z,5.00
2019-02-18T00:32:39.100Z,4.83
2019-02-18T00:35:27.967Z,7.70
2019-02-18T00:38:16.991Z,6.77
2019-02-18T00:41:06.272Z,5.35
2019-02-18T00:43:55.347Z,5.05
2019-02-18T00:46:44.594Z,5.70
2019-02-18T00:49:33.734Z,4.10
2019-02-18T00:52:22.900Z,5.67
2019-02-18T00:55:11.878Z,4.05
2019-02-18T00:58:00.231Z,5.58
2019-02-18T01:00:48.888Z,4.80
2019-02-18T01:03:37.902Z,5.08
2019-02-18T01:06:26.981Z,4.30
2019-02-18T01:09:15.578Z,5.30
2019-02-18T01:12:04.520Z,4.12
2019-02-18T01:14:53.420Z,5.78
2019-02-18T01:17:41.796Z,4.67
2019-02-18T01:20:30.388Z,4.50
2019-02-18T01:23:19.176Z,5.20
2019-02-18T01:26:07.688Z,4.15
2019-02-18T01:28:55.738Z,5.17
2019-02-18T01:31:44.152Z,7.67
2019-02-18T01:34:32.785Z,4.28
2019-02-18T01:37:21.690Z,3.75
2019-02-18T01:40:12.622Z,5.05
2019-02-18T01:43:01.018Z,4.95
2019-02-18T01:45:49.494Z,4.75
2019-02-18T01:48:38.134Z,4.15
2019-02-18T01:51:26.679Z,6.10
2019-02-18T01:54:15.926Z,4.50
2019-02-18T01:57:04.115Z,10.45
2019-02-18T01:59:52.402Z,6.22
2019-02-18T02:02:41.063Z,6.40
2019-02-18T02:05:30.209Z,5.85
2019-02-18T02:08:19.263Z,5.20
2019-02-18T02:11:08.360Z,7.45
2019-02-18T02:13:57.030Z,5.80
2019-02-18T02:16:45.925Z,6.05
2019-02-18T02:19:34.165Z,6.97
2019-02-18T02:22:23.058Z,5.80
2019-02-18T02:25:11.960Z,4.95
2019-02-18T02:28:00.791Z,4.33
2019-02-18T02:30:49.324Z,4.25
2019-02-18T02:33:37.847Z,5.20
2019-02-18T02:36:26.608Z,4.35
2019-02-18T02:39:15.440Z,5.73
2019-02-18T02:42:04.312Z,6.35
2019-02-18T02:44:53.269Z,5.55
2019-02-18T02:47:41.916Z,5.33
2019-02-18T02:50:30.664Z,4.85
2019-02-18T02:53:19.960Z,5.65
2019-02-18T02:56:08.294Z,4.50
2019-02-18T02:58:56.954Z,6.45
2019-02-18T03:01:46.026Z,5.05
2019-02-18T03:04:35.225Z,5.10
2019-02-18T03:07:24.065Z,7.00
2019-02-18T03:10:13.304Z,5.00
2019-02-18T03:13:02.408Z,3.77
2019-02-18T03:15:51.508Z,5.80
2019-02-18T03:18:40.086Z,4.03
2019-02-18T03:21:28.571Z,4.67
2019-02-18T03:24:17.621Z,5.47
2019-02-18T03:27:06.493Z,5.55
2019-02-18T03:30:43.124Z,4.92
2019-02-18T03:33:44.637Z,4.25
2019-02-18T03:36:33.976Z,7.25
2019-02-18T03:39:22.770Z,6.17
2019-02-18T03:42:11.690Z,4.83
2019-02-18T03:45:00.717Z,5.45
2019-02-18T03:47:49.865Z,3.75
2019-02-18T03:50:38.768Z,3.37
2019-02-18T03:53:27.513Z,4.40
2019-02-18T03:56:16.407Z,2.02
2019-02-18T03:59:04.714Z,7.70
2019-02-18T04:01:53.040Z,6.15
2019-02-18T04:04:42.413Z,4.28
2019-02-18T04:07:30.941Z,3.67
2019-02-18T04:10:19.850Z,6.75
2019-02-18T04:13:08.492Z,3.20
2019-02-18T04:15:57.354Z,3.52
2019-02-18T04:18:46.238Z,4.55
2019-02-18T04:21:35.069Z,6.03
2019-02-18T04:24:23.653Z,4.80
2019-02-18T04:27:12.764Z,5.12
2019-02-18T04:30:01.852Z,4.47
2019-02-18T04:32:50.437Z,5.10
2019-02-18T04:35:38.833Z,3.22
2019-02-18T04:38:27.314Z,2.90
2019-02-18T04:41:16.026Z,6.70
2019-02-18T04:44:04.643Z,6.95
2019-02-18T04:46:54.027Z,8.25
2019-02-18T04:49:42.688Z,4.50
2019-02-18T04:52:31.072Z,4.20
2019-02-18T04:55:19.826Z,5.33
2019-02-18T04:58:08.602Z,7.55
2019-02-18T05:00:57.514Z,4.95
2019-02-18T05:03:45.607Z,5.28
2019-02-18T05:06:34.426Z,5.17
2019-02-18T05:09:23.790Z,4.23
2019-02-18T05:12:12.486Z,5.53
2019-02-18T05:15:01.481Z,4.35
2019-02-18T05:17:50.716Z,5.55
2019-02-18T05:20:39.448Z,6.60
2019-02-18T05:23:28.318Z,4.90
2019-02-18T05:26:17.295Z,9.30
2019-02-18T05:29:06.047Z,6.05
2019-02-18T05:31:54.909Z,5.75
2019-02-18T05:34:43.784Z,4.00
2019-02-18T05:37:32.976Z,5.47
2019-02-18T05:40:21.939Z,4.80
2019-02-18T05:43:10.779Z,5.15
2019-02-18T05:45:59.331Z,4.67
2019-02-18T05:48:47.953Z,4.97
2019-02-18T05:51:36.817Z,3.52
2019-02-18T05:54:25.531Z,4.50
2019-02-18T05:57:14.403Z,4.17
2019-02-18T06:00:03.710Z,3.72
2019-02-18T06:02:52.550Z,5.10
2019-02-18T06:05:41.675Z,5.15
2019-02-18T06:08:31.422Z,5.77
2019-02-18T06:11:23.534Z,6.15
2019-02-18T06:14:12.242Z,4.62
2019-02-18T06:17:02.778Z,5.45
2019-02-18T06:19:51.186Z,5.10
2019-02-18T06:22:39.888Z,3.65
2019-02-18T06:25:28.194Z,5.17
2019-02-18T06:28:17.373Z,5.08
2019-02-18T06:31:05.855Z,4.33
2019-02-18T06:33:54.395Z,4.75
2019-02-18T06:36:42.528Z,5.17
2019-02-18T06:39:40.695Z,6.60
2019-02-18T06:42:21.985Z,5.92
2019-02-18T06:45:30.177Z,5.90
2019-02-18T06:48:36.669Z,9.03
2019-02-18T06:51:25.117Z,4.85
2019-02-18T06:54:13.955Z,5.53
2019-02-18T06:57:15.850Z,7.00
2019-02-18T07:00:15.078Z,4.20
2019-02-18T07:03:23.361Z,5.05
2019-02-18T07:06:23.297Z,7.35
2019-02-18T07:09:31.326Z,6.17
2019-02-18T07:12:31.265Z,5.90
2019-02-18T07:15:20.385Z,11.78
2019-02-18T07:18:09.167Z,7.92
2019-02-18T07:20:58.140Z,13.00
2019-02-18T07:23:46.927Z,7.23
2019-02-18T07:26:35.522Z,10.30
2019-02-18T07:29:24.587Z,6.42
2019-02-18T07:32:13.703Z,9.43
2019-02-18T07:35:02.067Z,6.80
2019-02-18T07:37:51.363Z,8.30
2019-02-18T07:40:40.329Z,8.48
2019-02-18T07:43:28.878Z,6.95
2019-02-18T07:46:17.661Z,5.75
2019-02-18T07:49:05.683Z,6.72
2019-02-18T07:51:54.133Z,7.92
2019-02-18T07:54:43.192Z,7.67
2019-02-18T07:57:34.175Z,7.75
2019-02-18T08:00:23.222Z,5.47
2019-02-18T08:03:12.145Z,4.08
2019-02-18T08:06:00.902Z,12.53
2019-02-18T08:08:49.833Z,7.87
2019-02-18T08:11:38.617Z,6.33
2019-02-18T08:14:27.105Z,6.10
2019-02-18T08:17:16.269Z,4.30
2019-02-18T08:20:06.840Z,6.30
2019-02-18T08:22:55.155Z,3.40
2019-02-18T08:25:43.960Z,5.15
2019-02-18T08:28:32.767Z,4.28
2019-02-18T08:31:22.087Z,7.45
2019-02-18T08:34:10.914Z,2.80
2019-02-18T08:37:00.010Z,3.52
2019-02-18T08:39:48.719Z,4.28
2019-02-18T08:42:37.184Z,6.85
2019-02-18T08:45:26.420Z,7.17
2019-02-18T08:48:15.272Z,2.83
2019-02-18T08:51:04.035Z,3.35
2019-02-18T08:53:52.241Z,8.17
2019-02-18T08:56:41.189Z,8.00
2019-02-18T08:59:30.496Z,9.40
2019-02-18T09:02:19.393Z,6.28
2019-02-18T09:05:08.658Z,4.40
2019-02-18T09:07:57.781Z,11.45
2019-02-18T09:10:46.345Z,9.13
2019-02-18T09:13:35.312Z,7.53
2019-02-18T09:16:25.702Z,8.63
2019-02-18T09:19:15.453Z,14.90
2019-02-18T09:22:23.417Z,7.35
2019-02-18T09:25:17.983Z,6.40
2019-02-18T09:28:07.379Z,5.30
2019-02-18T09:30:56.862Z,4.97
2019-02-18T09:33:45.329Z,3.77
2019-02-18T09:36:34.528Z,2.77
2019-02-18T09:39:31.273Z,12.73
2019-02-18T09:42:16.134Z,4.28
2019-02-18T09:45:05.527Z,5.67
2019-02-18T09:47:54.757Z,4.72
2019-02-18T09:50:43.555Z,8.95
2019-02-18T09:53:32.193Z,11.53
2019-02-18T09:56:21.456Z,6.42
2019-02-18T09:59:09.696Z,5.53
2019-02-18T10:01:58.349Z,3.58
2019-02-18T10:04:47.277Z,4.05
2019-02-18T10:07:35.469Z,6.50
2019-02-18T10:10:24.496Z,1.98
2019-02-18T10:13:13.785Z,4.65
2019-02-18T10:16:03.181Z,2.95
2019-02-18T10:18:52.610Z,7.80
2019-02-18T10:21:41.398Z,3.05
2019-02-18T10:24:29.904Z,5.47
2019-02-18T10:27:19.163Z,6.42
2019-02-18T10:30:09.424Z,3.58
2019-02-18T10:32:58.600Z,7.15
2019-02-18T10:35:47.157Z,3.72
2019-02-18T10:38:36.076Z,4.70
2019-02-18T10:41:25.202Z,3.95
2019-02-18T10:44:14.126Z,3.10
2019-02-18T10:47:02.923Z,4.17
2019-02-18T10:49:52.127Z,3.00
2019-02-18T10:52:40.580Z,3.53
2019-02-18T10:55:29.990Z,2.00
2019-02-18T10:58:18.521Z,8.25
2019-02-18T11:01:10.144Z,5.80
2019-02-18T11:03:59.406Z,4.50
2019-02-18T11:06:48.544Z,5.67
2019-02-18T11:09:37.336Z,2.40
2019-02-18T11:12:26.159Z,5.00
2019-02-18T11:15:14.425Z,5.90
2019-02-18T11:18:03.804Z,5.20
2019-02-18T11:20:52.756Z,7.30
2019-02-18T11:23:41.835Z,3.40
2019-02-18T11:26:30.636Z,3.35
2019-02-18T11:29:18.960Z,5.30
2019-02-18T11:32:07.624Z,5.00
2019-02-18T11:34:56.559Z,3.50
2019-02-18T11:37:46.802Z,8.23
2019-02-18T11:40:35.628Z,1.97
2019-02-18T11:43:24.569Z,5.60
2019-02-18T11:46:13.120Z,3.27
2019-02-18T11:49:02.266Z,2.30
2019-02-18T11:51:50.956Z,4.93
2019-02-18T11:54:39.333Z,3.60
2019-02-18T11:57:28.348Z,2.57
2019-02-18T12:00:17.804Z,4.30
2019-02-18T12:03:12.087Z,3.47
2019-02-18T12:05:56.809Z,3.93
2019-02-18T12:08:45.959Z,2.60
2019-02-18T12:11:38.005Z,3.97
2019-02-18T12:14:27.305Z,3.00
2019-02-18T12:17:20.517Z,5.55
2019-02-18T12:20:05.523Z,1.90
2019-02-18T12:22:54.309Z,2.77
2019-02-18T12:25:43.685Z,5.83
2019-02-18T12:28:32.278Z,5.33
2019-02-18T12:31:20.991Z,3.23
2019-02-18T12:36:57.240Z,4.90
2019-02-18T12:39:46.427Z,4.35
2019-02-18T12:42:35.266Z,4.30
2019-02-18T12:45:24.460Z,6.10
2019-02-18T12:48:13.426Z,3.47
2019-02-18T12:51:02.055Z,4.30
2019-02-18T12:53:50.753Z,3.97
2019-02-18T12:56:39.554Z,3.67
2019-02-18T12:59:28.963Z,3.07
2019-02-18T13:02:17.909Z,5.07
2019-02-18T13:05:08.017Z,3.50
2019-02-18T13:07:56.537Z,3.30
2019-02-18T13:10:45.326Z,6.00
2019-02-18T13:13:34.269Z,4.13
2019-02-18T13:16:23.114Z,4.93
2019-02-18T13:19:13.991Z,5.10
2019-02-18T13:22:03.088Z,4.87
2019-02-18T13:24:51.593Z,5.10
2019-02-18T13:27:39.901Z,7.67
2019-02-18T13:30:29.037Z,17.33
2019-02-18T13:33:17.420Z,7.57
2019-02-18T13:36:11.455Z,7.40
2019-02-18T13:38:59.978Z,8.73
2019-02-18T13:41:48.896Z,5.17
2019-02-18T13:44:37.858Z,6.13
2019-02-18T13:47:26.047Z,30.73
2019-02-18T13:50:15.264Z,5.63
2019-02-18T13:53:03.494Z,5.43
2019-02-18T13:55:52.229Z,5.30
2019-02-18T13:58:41.521Z,8.50
2019-02-18T14:01:30.047Z,5.40
2019-02-18T14:04:18.928Z,7.27
2019-02-18T14:07:07.925Z,6.27
2019-02-18T14:09:56.370Z,12.23
2019-02-18T14:12:44.750Z,9.90
2019-02-18T14:15:32.972Z,7.30
2019-02-18T14:18:21.676Z,5.73
2019-02-18T14:21:10.604Z,8.10
2019-02-18T14:23:59.603Z,12.40
2019-02-18T14:26:48.596Z,11.10
2019-02-18T14:29:36.882Z,8.40
2019-02-18T14:32:25.987Z,8.20
2019-02-18T14:35:16.084Z,7.57
2019-02-18T14:38:04.723Z,7.83
2019-02-18T14:40:53.698Z,7.87
2019-02-18T14:43:42.707Z,5.23
2019-02-18T14:46:31.549Z,6.67
2019-02-18T14:49:20.462Z,9.10
2019-02-18T14:52:09.627Z,5.80
2019-02-18T14:54:59.065Z,7.40
2019-02-18T14:57:49.540Z,8.20
2019-02-18T15:00:38.061Z,5.47
2019-02-18T15:03:26.455Z,12.33
2019-02-18T15:06:15.765Z,7.60
2019-02-18T15:09:05.560Z,4.97
2019-02-18T15:11:54.049Z,4.17
2019-02-18T15:14:43.137Z,4.90
2019-02-18T15:17:31.692Z,6.37
2019-02-18T15:20:20.467Z,4.80
2019-02-18T15:23:09.345Z,3.67
2019-02-18T15:25:58.164Z,6.50
2019-02-18T15:28:47.531Z,7.20
2019-02-18T15:31:36.712Z,7.23
2019-02-18T15:34:26.235Z,5.37
2019-02-18T15:37:15.042Z,6.80
2019-02-18T15:40:05.022Z,11.73
2019-02-18T15:42:53.994Z,6.60
2019-02-18T15:45:42.768Z,8.77
2019-02-18T15:48:33.020Z,7.97
2019-02-18T15:51:21.614Z,6.07
2019-02-18T15:54:11.800Z,10.80
2019-02-18T15:57:00.854Z,6.20
2019-02-18T15:59:49.358Z,9.83
2019-02-18T16:02:38.777Z,6.73
2019-02-18T16:05:28.104Z,8.30
2019-02-18T16:08:16.633Z,5.63
2019-02-18T16:11:05.696Z,7.50
2019-02-18T16:13:54.503Z,7.77
2019-02-18T16:16:43.246Z,5.20
2019-02-18T16:19:32.293Z,6.70
2019-02-18T16:22:20.436Z,13.03
2019-02-18T16:25:11.918Z,6.20
2019-02-18T16:28:00.974Z,5.13
2019-02-18T16:30:50.180Z,4.40
2019-02-18T16:33:38.870Z,6.03
2019-02-18T16:36:28.068Z,5.03
2019-02-18T16:39:17.524Z,5.90
2019-02-18T16:42:06.389Z,7.20
2019-02-18T16:44:55.629Z,8.87
2019-02-18T16:47:44.844Z,8.33
2019-02-18T16:50:34.169Z,11.50
2019-02-18T16:53:22.892Z,9.50
2019-02-18T16:56:11.681Z,5.50
2019-02-18T16:59:00.489Z,6.80
2019-02-18T17:01:49.007Z,6.13
2019-02-18T17:04:38.043Z,4.43
2019-02-18T17:07:27.270Z,5.13
2019-02-18T17:10:16.241Z,6.30
2019-02-18T17:13:08.283Z,4.72
2019-02-18T17:15:55.643Z,5.80
2019-02-18T17:18:45.042Z,7.62
2019-02-18T17:21:34.279Z,6.78
2019-02-18T17:24:23.489Z,7.92
2019-02-18T17:27:11.858Z,9.33
2019-02-18T17:30:00.780Z,11.88
2019-02-18T17:32:49.269Z,10.43
2019-02-18T17:35:38.498Z,13.72
2019-02-18T17:38:29.483Z,14.25
2019-02-18T17:41:18.521Z,12.20
2019-02-18T17:44:07.390Z,9.75
2019-02-18T17:46:56.000Z,16.48
2019-02-18T17:49:45.465Z,9.33
2019-02-18T17:52:34.598Z,11.83
2019-02-18T17:55:24.102Z,16.93
2019-02-18T17:58:13.427Z,19.48
2019-02-18T18:01:01.861Z,14.75
2019-02-18T18:03:50.405Z,12.53
2019-02-18T18:06:39.668Z,13.25
2019-02-18T18:09:29.065Z,14.18
2019-02-18T18:12:17.937Z,10.63
2019-02-18T18:15:08.577Z,16.15
2019-02-18T18:17:57.036Z,14.05
2019-02-18T18:20:46.640Z,11.73
2019-02-18T18:23:35.743Z,20.17
2019-02-18T18:26:26.152Z,8.17
2019-02-18T18:29:15.215Z,17.98
2019-02-18T18:32:04.133Z,11.05
2019-02-18T18:34:52.484Z,11.25
2019-02-18T18:37:41.293Z,12.45
2019-02-18T18:40:30.569Z,11.15
2019-02-18T18:43:19.911Z,10.60
2019-02-18T18:46:09.458Z,15.25
2019-02-18T18:48:58.345Z,8.53
2019-02-18T18:51:46.898Z,14.75
2019-02-18T18:54:35.879Z,9.78
2019-02-18T18:57:24.376Z,8.80
2019-02-18T19:00:21.074Z,12.73
2019-02-18T19:03:10.113Z,13.05
2019-02-18T19:05:59.153Z,10.45
2019-02-18T19:08:48.446Z,11.50
2019-02-18T19:11:37.315Z,10.33
2019-02-18T19:14:25.533Z,8.25
2019-02-18T19:17:14.570Z,8.83
2019-02-18T19:20:03.853Z,7.00
2019-02-18T19:22:53.808Z,10.40
2019-02-18T19:25:42.884Z,10.93
2019-02-18T19:28:31.550Z,9.35
2019-02-18T19:31:20.644Z,7.33
2019-02-18T19:34:10.509Z,7.33
2019-02-18T19:36:59.666Z,8.08
2019-02-18T19:39:48.886Z,6.58
2019-02-18T19:42:37.202Z,10.20
2019-02-18T19:45:26.288Z,16.90
2019-02-18T19:48:15.369Z,13.62
2019-02-18T19:51:03.988Z,15.78
2019-02-18T19:53:53.253Z,22.60
2019-02-18T19:56:41.856Z,19.33
2019-02-18T19:59:31.566Z,21.65
2019-02-18T20:02:20.546Z,20.08
2019-02-18T20:05:09.516Z,21.60
2019-02-18T20:07:58.315Z,17.73
2019-02-18T20:10:47.521Z,27.37
2019-02-18T20:13:36.505Z,21.95
2019-02-18T20:16:25.394Z,22.00
2019-02-18T20:19:14.561Z,21.73
2019-02-18T20:22:03.747Z,20.20
2019-02-18T20:24:53.116Z,16.42
2019-02-18T20:27:42.167Z,14.78
2019-02-18T20:30:32.813Z,14.50
2019-02-18T20:33:22.097Z,13.50
2019-02-18T20:36:11.745Z,14.63
2019-02-18T20:39:00.669Z,17.65
2019-02-18T20:41:51.506Z,17.90
2019-02-18T20:44:41.029Z,21.37
2019-02-18T20:47:29.897Z,19.80
2019-02-18T20:50:18.757Z,20.57
2019-02-18T20:53:08.883Z,22.85
2019-02-18T20:55:58.272Z,26.10
2019-02-18T20:58:46.977Z,22.27
2019-02-18T21:01:36.179Z,21.25
2019-02-18T21:04:25.510Z,30.25
2019-02-18T21:07:14.188Z,21.95
2019-02-18T21:10:02.775Z,17.65
2019-02-18T21:12:52.098Z,21.30
2019-02-18T21:15:40.856Z,16.40
2019-02-18T21:18:29.762Z,20.70
2019-02-18T21:21:18.682Z,20.57
2019-02-18T21:24:07.884Z,22.05
2019-02-18T21:26:56.607Z,24.57
2019-02-18T21:29:45.634Z,20.27
2019-02-18T21:32:34.857Z,21.77
2019-02-18T21:35:23.232Z,17.37
2019-02-18T21:38:12.298Z,14.40
2019-02-18T21:41:01.177Z,13.43
2019-02-18T21:43:50.643Z,14.23
2019-02-18T21:46:39.409Z,10.98
2019-02-18T21:49:28.829Z,11.55
2019-02-18T21:52:17.250Z,15.88
2019-02-18T21:55:05.906Z,11.53
2019-02-18T21:57:54.573Z,9.75
2019-02-18T22:00:43.110Z,11.40
2019-02-18T22:03:32.095Z,10.23
2019-02-18T22:06:20.711Z,7.62
2019-02-18T22:09:09.325Z,9.90
2019-02-18T22:11:58.285Z,9.23
2019-02-18T22:14:47.713Z,8.25
2019-02-18T22:17:36.595Z,8.60
2019-02-18T22:20:25.144Z,6.85
2019-02-18T22:23:15.154Z,6.42
2019-02-18T22:26:03.855Z,7.50
2019-02-18T22:28:52.598Z,9.55
2019-02-18T22:31:41.717Z,7.30
2019-02-18T22:34:30.647Z,9.85
2019-02-18T22:37:21.617Z,8.95
2019-02-18T22:40:10.360Z,6.75
2019-02-18T22:42:59.206Z,10.32
2019-02-18T22:45:53.151Z,7.45
2019-02-18T22:48:41.831Z,11.88
2019-02-18T22:51:30.571Z,11.10
2019-02-18T22:54:20.696Z,10.93
2019-02-18T22:57:10.557Z,14.40
2019-02-18T22:59:59.444Z,12.60
2019-02-18T23:02:48.529Z,11.20
2019-02-18T23:05:37.216Z,10.38
2019-02-18T23:08:26.002Z,8.45
2019-02-18T23:11:15.385Z,11.23
2019-02-18T23:14:03.998Z,9.45
2019-02-18T23:16:52.857Z,8.48
2019-02-18T23:19:41.486Z,10.50
2019-02-18T23:22:29.941Z,9.55
2019-02-18T23:25:18.905Z,13.55
2019-02-18T23:28:07.814Z,9.55
2019-02-18T23:30:57.182Z,9.80
2019-02-18T23:33:46.322Z,13.40
2019-02-18T23:36:35.484Z,12.80
2019-02-18T23:39:24.550Z,10.82
2019-02-18T23:42:13.650Z,10.47
2019-02-18T23:45:01.848Z,7.40
2019-02-18T23:47:50.941Z,9.65
2019-02-18T23:50:40.295Z,6.92
2019-02-18T23:53:29.543Z,7.55
2019-02-18T23:56:19.907Z,9.87
2019-02-18T23:59:09.276Z,9.15
